createdAt,value
2024-01-14T00:01:03.283Z,-20.43
2024-01-14T00:03:34.520Z,-20.56
2024-01-14T00:06:03.963Z,-20.53
2024-01-14T00:08:32.520Z,-20.33
2024-01-14T00:11:01.085Z,-20.49
2024-01-14T00:13:29.417Z,-20.45
2024-01-14T00:15:57.849Z,-20.48
2024-01-14T00:18:26.433Z,-20.73
2024-01-14T00:20:56.381Z,-20.47
2024-01-14T00:23:24.902Z,-20.64
2024-01-14T00:25:53.335Z,-20.59
2024-01-14T00:28:21.724Z,-20.54
2024-01-14T00:30:50.176Z,-20.54
2024-01-14T00:33:18.843Z,-20.43
2024-01-14T00:35:47.718Z,-20.50
2024-01-14T00:38:17.629Z,-20.38
2024-01-14T00:40:46.025Z,-20.47
2024-01-14T00:43:14.401Z,-20.54
2024-01-14T00:45:42.782Z,-20.43
2024-01-14T00:48:11.642Z,-20.35
2024-01-14T00:50:40.235Z,-20.44
2024-01-14T00:53:08.739Z,-20.32
2024-01-14T00:55:39.196Z,-20.29
2024-01-14T00:58:07.729Z,-20.19
2024-01-14T01:00:36.397Z,-20.04
2024-01-14T01:03:05.446Z,-20.24
2024-01-14T01:05:34.028Z,-20.16
2024-01-14T01:08:02.503Z,-20.20
2024-01-14T01:10:30.882Z,-20.25
2024-01-14T01:13:00.735Z,-20.16
2024-01-14T01:15:29.184Z,-20.17
2024-01-14T01:17:57.979Z,-20.17
2024-01-14T01:20:26.591Z,-20.23
2024-01-14T01:22:54.993Z,-20.19
2024-01-14T01:25:23.381Z,-20.08
2024-01-14T01:27:51.785Z,-20.11
2024-01-14T01:30:21.833Z,-20.13
2024-01-14T01:32:50.986Z,-20.10
2024-01-14T01:35:19.777Z,-19.99
2024-01-14T01:37:48.148Z,-20.03
2024-01-14T01:40:16.596Z,-20.06
2024-01-14T01:42:45.157Z,-19.88
2024-01-14T01:45:13.889Z,-19.85
2024-01-14T01:47:44.448Z,-19.81
2024-01-14T01:50:15.545Z,-19.77
2024-01-14T01:52:44.317Z,-19.68
2024-01-14T01:55:13.480Z,-19.92
2024-01-14T01:57:41.838Z,-19.94
2024-01-14T02:00:11.639Z,-19.86
2024-01-14T02:02:44.923Z,-19.98
2024-01-14T02:05:14.403Z,-19.94
2024-01-14T02:07:42.954Z,-19.90
2024-01-14T02:10:11.473Z,-19.82
2024-01-14T02:12:39.953Z,-19.87
2024-01-14T02:15:09.282Z,-19.91
2024-01-14T02:17:37.963Z,-19.89
2024-01-14T02:20:10.185Z,-19.93
2024-01-14T02:22:42.663Z,-19.98
2024-01-14T02:25:12.598Z,-19.93
2024-01-14T02:27:41.194Z,-19.93
2024-01-14T02:30:11.278Z,-19.96
2024-01-14T02:32:40.764Z,-19.87
2024-01-14T02:35:10.012Z,-19.93
2024-01-14T02:37:44.946Z,-19.91
2024-01-14T02:40:15.541Z,-19.90
2024-01-14T02:42:44.408Z,-19.88
2024-01-14T02:45:12.828Z,-19.95
2024-01-14T02:47:41.646Z,-19.87
2024-01-14T02:50:10.756Z,-19.88
2024-01-14T02:52:39.275Z,-19.84
2024-01-14T02:55:08.144Z,-19.91
2024-01-14T02:57:38.026Z,-19.86
2024-01-14T03:00:08.792Z,-19.80
2024-01-14T03:02:37.564Z,-19.90
2024-01-14T03:05:06.784Z,-19.82
2024-01-14T03:07:35.237Z,-19.90
2024-01-14T03:10:03.918Z,-19.80
2024-01-14T03:12:33.516Z,-19.77
2024-01-14T03:15:03.490Z,-19.68
2024-01-14T03:17:33.521Z,-19.73
2024-01-14T03:20:02.204Z,-19.73
2024-01-14T03:22:31.188Z,-19.85
2024-01-14T03:24:59.732Z,-19.84
2024-01-14T03:27:30.802Z,-19.79
2024-01-14T03:29:59.637Z,-19.99
2024-01-14T03:32:29.514Z,-20.01
2024-01-14T03:34:57.912Z,-20.06
2024-01-14T03:37:26.351Z,-20.14
2024-01-14T03:39:55.360Z,-20.03
2024-01-14T03:42:24.147Z,-20.17
2024-01-14T03:44:52.715Z,-20.19
2024-01-14T03:47:21.289Z,-19.99
2024-01-14T03:49:51.229Z,-20.01
2024-01-14T03:52:19.661Z,-20.15
2024-01-14T03:54:48.064Z,-20.40
2024-01-14T03:57:16.472Z,-20.17
2024-01-14T03:59:44.999Z,-20.32
2024-01-14T04:02:13.677Z,-20.29
2024-01-14T04:04:42.060Z,-20.31
2024-01-14T04:07:12.294Z,-20.22
2024-01-14T04:09:40.735Z,-20.26
2024-01-14T04:12:09.663Z,-20.30
2024-01-14T04:14:38.091Z,-20.21
2024-01-14T04:17:06.691Z,-20.27
2024-01-14T04:19:35.189Z,-20.23
2024-01-14T04:22:03.699Z,-20.26
2024-01-14T04:24:33.563Z,-20.30
2024-01-14T04:27:02.267Z,-20.42
2024-01-14T04:29:30.783Z,-20.32
2024-01-14T04:31:59.123Z,-20.26
2024-01-14T04:34:27.591Z,-20.32
2024-01-14T04:36:56.710Z,-20.36
2024-01-14T04:39:25.161Z,-20.31
2024-01-14T04:41:54.976Z,-20.31
2024-01-14T04:44:23.391Z,-20.48
2024-01-14T04:46:51.781Z,-20.49
2024-01-14T04:49:20.317Z,-20.48
2024-01-14T04:51:48.827Z,-20.55
2024-01-14T04:54:17.278Z,-20.48
2024-01-14T04:56:45.812Z,-20.48
2024-01-14T04:59:16.143Z,-20.57
2024-01-14T05:01:44.650Z,-20.64
2024-01-14T05:04:13.751Z,-20.64
2024-01-14T05:06:42.213Z,-20.47
2024-01-14T05:09:11.084Z,-20.46
2024-01-14T05:11:39.721Z,-20.51
2024-01-14T05:14:08.121Z,-20.39
2024-01-14T05:16:38.040Z,-20.42
2024-01-14T05:19:06.594Z,-20.41
2024-01-14T05:21:35.203Z,-20.53
2024-01-14T05:24:03.719Z,-20.62
2024-01-14T05:26:32.319Z,-20.48
2024-01-14T05:29:01.535Z,-20.48
2024-01-14T05:31:30.621Z,-20.41
2024-01-14T05:34:00.433Z,-20.29
2024-01-14T05:36:28.971Z,-20.07
2024-01-14T05:38:57.431Z,-19.98
2024-01-14T05:41:25.914Z,-19.99
2024-01-14T05:43:54.225Z,-19.82
2024-01-14T05:46:22.617Z,-19.87
2024-01-14T05:48:51.134Z,-20.01
2024-01-14T05:51:21.150Z,-19.68
2024-01-14T05:53:49.584Z,-19.58
2024-01-14T05:56:26.134Z,-19.54
2024-01-14T05:58:54.616Z,-19.58
2024-01-14T06:01:22.970Z,-19.57
2024-01-14T06:03:51.385Z,-19.43
2024-01-14T06:06:22.063Z,-19.20
2024-01-14T06:08:50.960Z,-19.21
2024-01-14T06:11:21.201Z,-19.55
2024-01-14T06:13:49.744Z,-19.27
2024-01-14T06:16:18.157Z,-19.47
2024-01-14T06:18:46.933Z,-19.76
2024-01-14T06:21:15.577Z,-19.19
2024-01-14T06:23:45.961Z,-19.21
2024-01-14T06:26:18.354Z,-18.98
2024-01-14T06:28:50.237Z,-19.15
2024-01-14T06:31:19.616Z,-18.95
2024-01-14T06:33:48.392Z,-18.92
2024-01-14T06:36:16.947Z,-18.99
2024-01-14T06:38:46.741Z,-18.74
2024-01-14T06:41:20.007Z,-18.54
2024-01-14T06:43:48.442Z,-18.58
2024-01-14T06:46:17.643Z,-18.62
2024-01-14T06:48:46.201Z,-18.33
2024-01-14T06:51:15.104Z,-18.73
2024-01-14T06:53:43.704Z,-18.54
2024-01-14T06:56:17.652Z,-18.42
2024-01-14T06:58:46.421Z,-18.23
2024-01-14T07:01:15.239Z,-18.02
2024-01-14T07:03:43.903Z,-17.99
2024-01-14T07:06:12.550Z,-17.72
2024-01-14T07:08:41.408Z,-17.92
2024-01-14T07:11:10.019Z,-17.80
2024-01-14T07:13:40.330Z,-17.72
2024-01-14T07:16:08.907Z,-17.84
2024-01-14T07:18:37.653Z,-17.77
2024-01-14T07:21:06.308Z,-17.91
2024-01-14T07:23:43.865Z,-17.70
2024-01-14T07:26:17.266Z,-18.03
2024-01-14T07:28:47.980Z,-17.84
2024-01-14T07:31:22.683Z,-17.99
2024-01-14T07:33:52.969Z,-17.81
2024-01-14T07:36:22.274Z,-17.62
2024-01-14T07:38:52.626Z,-17.52
2024-01-14T07:41:21.121Z,-17.97
2024-01-14T07:43:50.945Z,-17.50
2024-01-14T07:46:19.419Z,-17.46
2024-01-14T07:48:47.934Z,-17.43
2024-01-14T07:51:16.507Z,-17.51
2024-01-14T07:53:45.087Z,-17.42
2024-01-14T07:56:13.799Z,-17.56
2024-01-14T07:58:42.293Z,-17.52
2024-01-14T08:01:12.466Z,-17.51
2024-01-14T08:03:41.015Z,-17.20
2024-01-14T08:06:09.506Z,-17.23
2024-01-14T08:08:38.158Z,-17.26
2024-01-14T08:11:06.852Z,-17.29
2024-01-14T08:13:35.344Z,-16.97
2024-01-14T08:16:04.027Z,-16.95
2024-01-14T08:18:34.254Z,-16.83
2024-01-14T08:21:03.134Z,-16.91
2024-01-14T08:23:34.013Z,-16.72
2024-01-14T08:26:06.507Z,-16.82
2024-01-14T08:28:36.868Z,-16.71
2024-01-14T08:31:05.844Z,-16.55
2024-01-14T08:33:35.844Z,-16.70
2024-01-14T08:36:04.493Z,-16.39
2024-01-14T08:38:33.557Z,-16.41
2024-01-14T08:41:02.341Z,-16.23
2024-01-14T08:43:30.850Z,-16.12
2024-01-14T08:45:59.242Z,-16.29
2024-01-14T08:48:30.734Z,-16.57
2024-01-14T08:51:02.557Z,-16.30
2024-01-14T08:53:31.111Z,-16.14
2024-01-14T08:55:59.541Z,-15.87
2024-01-14T08:58:27.944Z,-15.69
2024-01-14T09:00:57.260Z,-15.75
2024-01-14T09:03:25.814Z,-15.80
2024-01-14T09:05:54.545Z,-15.53
2024-01-14T09:08:24.378Z,-15.19
2024-01-14T09:10:52.784Z,-14.95
2024-01-14T09:13:21.151Z,-14.72
2024-01-14T09:15:49.753Z,-15.18
2024-01-14T09:18:18.446Z,-14.64
2024-01-14T09:20:46.959Z,-15.00
2024-01-14T09:23:15.761Z,-15.13
2024-01-14T09:25:45.500Z,-14.77
2024-01-14T09:28:14.192Z,-14.53
2024-01-14T09:30:42.796Z,-14.40
2024-01-14T09:33:11.950Z,-14.47
2024-01-14T09:35:40.504Z,-14.34
2024-01-14T09:38:08.989Z,-14.54
2024-01-14T09:40:37.767Z,-14.39
2024-01-14T09:43:12.011Z,-14.88
2024-01-14T09:45:47.006Z,-14.88
2024-01-14T09:48:20.420Z,-14.57
2024-01-14T09:50:50.276Z,-14.20
2024-01-14T09:53:19.423Z,-14.02
2024-01-14T09:55:49.597Z,-14.33
2024-01-14T09:58:19.902Z,-14.24
2024-01-14T10:00:49.856Z,-14.06
2024-01-14T10:03:18.330Z,-13.90
2024-01-14T10:05:47.109Z,-14.07
2024-01-14T10:08:15.610Z,-13.99
2024-01-14T10:10:57.410Z,-13.97
2024-01-14T10:13:29.178Z,-14.56
2024-01-14T10:15:59.585Z,-14.26
2024-01-14T10:18:28.666Z,-14.61
2024-01-14T10:20:57.949Z,-14.01
2024-01-14T10:23:27.548Z,-14.08
2024-01-14T10:25:56.007Z,-13.82
2024-01-14T10:28:24.901Z,-14.16
2024-01-14T10:30:54.839Z,-14.08
2024-01-14T10:33:24.005Z,-14.19
2024-01-14T10:35:53.132Z,-13.90
2024-01-14T10:38:23.603Z,-14.23
2024-01-14T10:40:54.268Z,-14.40
2024-01-14T10:43:25.542Z,-14.40
2024-01-14T10:45:56.658Z,-14.11
2024-01-14T10:48:27.679Z,-14.32
2024-01-14T10:50:59.596Z,-14.24
2024-01-14T10:53:33.048Z,-14.47
2024-01-14T10:56:03.519Z,-14.41
2024-01-14T10:58:37.131Z,-14.35
2024-01-14T11:01:10.430Z,-14.19
2024-01-14T11:03:40.727Z,-14.38
2024-01-14T11:06:10.178Z,-14.46
2024-01-14T11:08:39.240Z,-14.54
2024-01-14T11:11:07.841Z,-14.79
2024-01-14T11:13:40.253Z,-14.53
2024-01-14T11:16:14.784Z,-14.56
2024-01-14T11:18:48.376Z,-14.64
2024-01-14T11:21:37.342Z,-14.67
2024-01-14T11:24:15.003Z,-14.66
2024-01-14T11:26:43.978Z,-14.66
2024-01-14T11:29:12.649Z,-14.59
2024-01-14T11:32:10.924Z,-14.62
2024-01-14T11:35:01.844Z,-14.68
2024-01-14T11:37:47.006Z,-14.86
2024-01-14T11:40:25.941Z,-14.62
2024-01-14T11:42:59.355Z,-14.72
2024-01-14T11:45:35.469Z,-14.68
2024-01-14T11:48:07.255Z,-14.53
2024-01-14T11:50:38.315Z,-14.61
2024-01-14T11:53:08.829Z,-14.71
2024-01-14T11:55:37.415Z,-14.47
2024-01-14T11:58:13.227Z,-14.73
2024-01-14T12:00:42.423Z,-14.69
2024-01-14T12:03:15.367Z,-14.76
2024-01-14T12:05:45.094Z,-14.60
2024-01-14T12:08:14.724Z,-14.56
2024-01-14T12:10:43.507Z,-14.80
2024-01-14T12:13:11.962Z,-14.54
2024-01-14T12:15:44.584Z,-14.66
2024-01-14T12:18:18.619Z,-14.43
2024-01-14T12:20:47.103Z,-14.30
2024-01-14T12:23:15.890Z,-14.66
2024-01-14T12:25:44.445Z,-14.71
2024-01-14T12:28:12.950Z,-14.58
2024-01-14T12:30:41.523Z,-14.65
2024-01-14T12:33:12.147Z,-14.66
2024-01-14T12:35:41.553Z,-14.69
2024-01-14T12:38:11.026Z,-14.75
2024-01-14T12:40:39.879Z,-14.78
2024-01-14T12:43:08.951Z,-14.73
2024-01-14T12:45:37.739Z,-14.68
2024-01-14T12:48:08.178Z,-14.57
2024-01-14T12:50:38.824Z,-14.68
2024-01-14T12:53:15.820Z,-14.56
2024-01-14T12:55:45.941Z,-14.63
2024-01-14T12:58:15.796Z,-14.65
2024-01-14T13:00:45.789Z,-14.55
2024-01-14T13:03:16.700Z,-14.61
2024-01-14T13:05:45.601Z,-14.85
2024-01-14T13:08:15.966Z,-14.86
2024-01-14T13:10:44.514Z,-14.90
2024-01-14T13:13:13.093Z,-14.84
2024-01-14T13:15:41.590Z,-14.67
2024-01-14T13:18:11.031Z,-14.93
2024-01-14T13:20:39.691Z,-14.82
2024-01-14T13:23:08.310Z,-14.90
2024-01-14T13:25:38.196Z,-14.84
2024-01-14T13:28:07.113Z,-14.84
2024-01-14T13:30:35.621Z,-14.88
2024-01-14T13:33:04.402Z,-14.81
2024-01-14T13:35:33.066Z,-14.87
2024-01-14T13:38:01.579Z,-14.92
2024-01-14T13:40:29.992Z,-14.83
2024-01-14T13:42:59.903Z,-14.88
2024-01-14T13:45:31.940Z,-14.91
2024-01-14T13:48:00.896Z,-14.75
2024-01-14T13:50:29.603Z,-14.68
2024-01-14T13:52:58.101Z,-14.81
2024-01-14T13:55:27.702Z,-14.83
2024-01-14T13:57:56.246Z,-14.78
2024-01-14T14:00:26.772Z,-14.79
2024-01-14T14:02:55.212Z,-14.66
2024-01-14T14:05:23.970Z,-14.77
2024-01-14T14:07:52.516Z,-14.66
2024-01-14T14:10:21.432Z,-14.60
2024-01-14T14:12:49.896Z,-14.68
2024-01-14T14:15:37.596Z,-14.71
2024-01-14T14:18:13.753Z,-14.77
2024-01-14T14:20:48.584Z,-14.60
2024-01-14T14:23:16.956Z,-14.72
2024-01-14T14:25:45.726Z,-14.75
2024-01-14T14:28:14.439Z,-14.60
2024-01-14T14:30:44.574Z,-14.73
2024-01-14T14:33:13.503Z,-14.86
2024-01-14T14:35:42.251Z,-14.74
2024-01-14T14:38:10.681Z,-14.84
2024-01-14T14:40:39.087Z,-14.72
2024-01-14T14:43:07.587Z,-14.79
2024-01-14T14:45:36.132Z,-14.74
2024-01-14T14:48:07.500Z,-14.70
2024-01-14T14:50:36.348Z,-14.77
2024-01-14T14:53:05.790Z,-14.70
2024-01-14T14:55:35.956Z,-14.73
2024-01-14T14:58:04.489Z,-14.74
2024-01-14T15:00:34.395Z,-14.80
2024-01-14T15:03:03.095Z,-14.79
2024-01-14T15:05:33.004Z,-14.85
2024-01-14T15:08:01.521Z,-14.78
2024-01-14T15:10:29.958Z,-14.53
2024-01-14T15:12:58.895Z,-14.64
2024-01-14T15:15:30.126Z,-14.49
2024-01-14T15:17:58.947Z,-14.65
2024-01-14T15:20:27.723Z,-14.42
2024-01-14T15:22:57.518Z,-14.36
2024-01-14T15:25:25.928Z,-14.50
2024-01-14T15:27:54.333Z,-14.49
2024-01-14T15:30:22.871Z,-14.28
2024-01-14T15:32:51.626Z,-14.25
2024-01-14T15:35:20.437Z,-14.24
2024-01-14T15:37:48.987Z,-14.20
2024-01-14T15:40:18.942Z,-14.27
2024-01-14T15:42:47.897Z,-14.12
2024-01-14T15:45:16.419Z,-14.24
2024-01-14T15:47:46.125Z,-14.15
2024-01-14T15:50:17.277Z,-14.00
2024-01-14T15:52:46.047Z,-14.12
2024-01-14T15:55:16.187Z,-13.96
2024-01-14T15:57:46.471Z,-13.85
2024-01-14T16:00:17.844Z,-13.97
2024-01-14T16:02:46.357Z,-13.83
2024-01-14T16:05:15.214Z,-13.62
2024-01-14T16:07:43.765Z,-13.51
2024-01-14T16:10:15.871Z,-13.52
2024-01-14T16:12:46.223Z,-13.55
2024-01-14T16:15:17.151Z,-13.76
2024-01-14T16:17:48.157Z,-13.55
2024-01-14T16:20:16.856Z,-13.40
2024-01-14T16:22:49.441Z,-13.41
2024-01-14T16:25:18.103Z,-13.29
2024-01-14T16:27:48.856Z,-13.35
2024-01-14T16:30:17.695Z,-13.19
2024-01-14T16:32:46.864Z,-13.13
2024-01-14T16:35:18.388Z,-13.26
2024-01-14T16:37:47.025Z,-13.42
2024-01-14T16:40:18.079Z,-13.14
2024-01-14T16:42:49.345Z,-13.25
2024-01-14T16:45:18.078Z,-13.00
2024-01-14T16:47:46.730Z,-13.22
2024-01-14T16:50:15.277Z,-13.15
2024-01-14T16:52:45.972Z,-13.06
2024-01-14T16:55:14.752Z,-13.10
2024-01-14T16:57:43.274Z,-13.05
2024-01-14T17:00:14.340Z,-13.02
2024-01-14T17:02:43.324Z,-13.12
2024-01-14T17:05:12.246Z,-13.09
2024-01-14T17:07:40.631Z,-13.15
2024-01-14T17:10:09.964Z,-13.05
2024-01-14T17:12:38.401Z,-13.15
2024-01-14T17:15:07.464Z,-13.11
2024-01-14T17:17:37.396Z,-12.95
2024-01-14T17:20:06.912Z,-12.94
2024-01-14T17:22:36.169Z,-12.97
2024-01-14T17:25:05.758Z,-12.98
2024-01-14T17:27:35.559Z,-12.79
2024-01-14T17:30:04.581Z,-12.87
2024-01-14T17:32:33.674Z,-12.82
2024-01-14T17:35:04.114Z,-12.80
2024-01-14T17:37:33.033Z,-12.74
2024-01-14T17:40:01.604Z,-12.63
2024-01-14T17:42:35.988Z,-12.77
2024-01-14T17:45:04.623Z,-12.73
2024-01-14T17:47:33.276Z,-12.64
2024-01-14T17:50:03.647Z,-12.60
2024-01-14T17:52:33.566Z,-12.55
2024-01-14T17:55:04.129Z,-12.52
2024-01-14T17:57:32.813Z,-12.59
2024-01-14T18:00:01.434Z,-12.51
2024-01-14T18:02:35.243Z,-12.41
2024-01-14T18:05:05.781Z,-12.43
2024-01-14T18:07:34.233Z,-12.43
2024-01-14T18:10:02.654Z,-12.32
2024-01-14T18:12:32.463Z,-12.32
2024-01-14T18:15:01.082Z,-12.23
2024-01-14T18:17:30.432Z,-12.21
2024-01-14T18:19:59.028Z,-12.11
2024-01-14T18:22:29.025Z,-12.16
2024-01-14T18:24:57.490Z,-12.08
2024-01-14T18:27:25.867Z,-11.98
2024-01-14T18:29:54.464Z,-11.94
2024-01-14T18:32:23.000Z,-11.83
2024-01-14T18:34:55.105Z,-11.95
2024-01-14T18:37:23.664Z,-11.91
2024-01-14T18:39:53.832Z,-11.83
2024-01-14T18:42:22.527Z,-11.66
2024-01-14T18:44:51.099Z,-11.77
2024-01-14T18:47:19.526Z,-11.53
2024-01-14T18:49:48.215Z,-11.61
2024-01-14T18:52:18.744Z,-11.60
2024-01-14T18:54:48.218Z,-11.60
2024-01-14T18:57:18.266Z,-11.63
2024-01-14T18:59:46.893Z,-11.67
2024-01-14T19:02:15.514Z,-11.52
2024-01-14T19:04:47.304Z,-11.52
2024-01-14T19:07:16.925Z,-11.48
2024-01-14T19:09:45.719Z,-11.43
2024-01-14T19:12:14.666Z,-11.41
2024-01-14T19:14:44.553Z,-11.34
2024-01-14T19:17:13.032Z,-11.33
2024-01-14T19:19:41.773Z,-11.45
2024-01-14T19:22:12.464Z,-11.35
2024-01-14T19:24:43.824Z,-11.23
2024-01-14T19:27:13.541Z,-11.22
2024-01-14T19:29:42.454Z,-11.12
2024-01-14T19:32:12.420Z,-11.15
2024-01-14T19:34:41.092Z,-11.25
2024-01-14T19:37:11.090Z,-11.23
2024-01-14T19:39:41.402Z,-11.26
2024-01-14T19:42:11.885Z,-11.15
2024-01-14T19:44:40.923Z,-11.16
2024-01-14T19:47:09.479Z,-11.24
2024-01-14T19:49:39.937Z,-11.29
2024-01-14T19:52:08.523Z,-11.36
2024-01-14T19:54:37.728Z,-11.37
2024-01-14T19:57:06.861Z,-11.38
2024-01-14T19:59:35.241Z,-11.44
2024-01-14T20:02:04.178Z,-11.38
2024-01-14T20:04:32.629Z,-11.50
2024-01-14T20:07:02.530Z,-11.38
2024-01-14T20:09:31.055Z,-11.32
2024-01-14T20:12:01.397Z,-11.25
2024-01-14T20:14:30.283Z,-11.14
2024-01-14T20:16:59.143Z,-11.14
2024-01-14T20:19:27.650Z,-11.19
2024-01-14T20:21:56.837Z,-11.20
2024-01-14T20:24:27.386Z,-11.07
2024-01-14T20:26:57.215Z,-11.08
2024-01-14T20:29:25.875Z,-10.97
2024-01-14T20:31:54.536Z,-10.99
2024-01-14T20:34:24.931Z,-11.04
2024-01-14T20:36:54.227Z,-10.95
2024-01-14T20:39:23.003Z,-10.90
2024-01-14T20:41:52.933Z,-10.84
2024-01-14T20:44:21.470Z,-10.86
2024-01-14T20:46:49.913Z,-10.80
2024-01-14T20:49:19.403Z,-10.77
2024-01-14T20:51:48.022Z,-10.64
2024-01-14T20:54:19.484Z,-10.62
2024-01-14T20:56:48.054Z,-10.65
2024-01-14T20:59:17.930Z,-10.48
2024-01-14T21:01:47.032Z,-10.32
2024-01-14T21:04:15.790Z,-10.52
2024-01-14T21:06:44.549Z,-10.47
2024-01-14T21:09:13.162Z,-10.45
2024-01-14T21:11:42.152Z,-10.29
2024-01-14T21:14:10.922Z,-10.21
2024-01-14T21:16:43.650Z,-10.28
2024-01-14T21:19:13.143Z,-10.35
2024-01-14T21:21:41.829Z,-10.41
2024-01-14T21:24:10.334Z,-10.33
2024-01-14T21:26:38.955Z,-10.30
2024-01-14T21:29:07.929Z,-10.34
2024-01-14T21:31:36.638Z,-10.35
2024-01-14T21:34:06.665Z,-10.27
2024-01-14T21:36:35.241Z,-10.28
2024-01-14T21:39:04.610Z,-10.31
2024-01-14T21:41:33.045Z,-10.20
2024-01-14T21:44:01.739Z,-10.26
2024-01-14T21:46:30.226Z,-10.34
2024-01-14T21:48:58.937Z,-10.20
2024-01-14T21:51:29.540Z,-10.04
2024-01-14T21:53:58.595Z,-10.01
2024-01-14T21:56:27.073Z,-10.02
2024-01-14T21:58:55.498Z,-10.15
2024-01-14T22:01:24.125Z,-10.09
2024-01-14T22:03:52.716Z,-10.03
2024-01-14T22:06:21.197Z,-10.03
2024-01-14T22:08:51.077Z,-9.98
2024-01-14T22:11:19.659Z,-10.00
2024-01-14T22:13:48.537Z,-9.87
2024-01-14T22:16:17.197Z,-9.90
2024-01-14T22:18:45.883Z,-9.89
2024-01-14T22:21:14.495Z,-9.92
2024-01-14T22:23:42.963Z,-9.85
2024-01-14T22:26:12.844Z,-9.74
2024-01-14T22:28:41.948Z,-9.68
2024-01-14T22:31:10.407Z,-9.62
2024-01-14T22:33:39.013Z,-9.65
2024-01-14T22:36:08.147Z,-9.57
2024-01-14T22:38:36.652Z,-9.58
2024-01-14T22:41:05.365Z,-9.45
2024-01-14T22:43:35.242Z,-9.39
2024-01-14T22:46:05.390Z,-9.41
2024-01-14T22:48:34.663Z,-9.38
2024-01-14T22:51:04.121Z,-9.45
2024-01-14T22:53:32.664Z,-9.55
2024-01-14T22:56:01.233Z,-9.60
2024-01-14T22:58:31.637Z,-9.59
2024-01-14T23:01:01.561Z,-9.42
2024-01-14T23:03:30.203Z,-9.59
2024-01-14T23:05:58.649Z,-9.46
2024-01-14T23:08:27.375Z,-9.44
2024-01-14T23:10:55.970Z,-9.52
2024-01-14T23:13:24.528Z,-9.43
2024-01-14T23:15:53.244Z,-9.40
2024-01-14T23:18:23.893Z,-9.40
2024-01-14T23:20:52.484Z,-9.46
2024-01-14T23:23:20.891Z,-9.49
2024-01-14T23:25:49.433Z,-9.49
2024-01-14T23:28:18.063Z,-9.47
2024-01-14T23:30:46.526Z,-9.45
2024-01-14T23:33:15.130Z,-9.45
2024-01-14T23:35:45.164Z,-9.53
2024-01-14T23:38:13.888Z,-9.45
2024-01-14T23:40:42.624Z,-9.49
2024-01-14T23:43:11.092Z,-9.41
2024-01-14T23:45:40.199Z,-9.43
2024-01-14T23:48:09.247Z,-9.42
2024-01-14T23:50:37.706Z,-9.38
2024-01-14T23:53:07.765Z,-9.44
2024-01-14T23:55:36.144Z,-9.39
2024-01-14T23:58:04.732Z,-9.32
